Time;durP1;ratioP1;P1;durP2;ratioP2;P2;SDS_P1;SDS_P2;PMS_P1;PMS_P2;Temp;Humidity;BMP_temperature;BMP_pressure;BME280_temperature;BME280_humidity;BME280_pressure;Samples;Min_cycle;Max_cycle;Signal;HPM_P1;HPM_P2
2023/08/29 00:00:30;;;;;;;7.68;1.30;;;;;;;17.34;64.76;99900.22;5002586;28;20030;-85
2023/08/29 00:02:56;;;;;;;9.63;1.73;;;;;;;17.33;65.02;99902.94;5004850;28;20361;-86
2023/08/29 00:05:21;;;;;;;5.13;1.40;;;;;;;17.30;65.18;99908.41;5001591;28;20100;-86
2023/08/29 00:07:47;;;;;;;7.95;1.30;;;;;;;17.27;65.06;99900.53;5002451;28;20026;-86
2023/08/29 00:10:13;;;;;;;6.87;1.43;;;;;;;17.25;65.41;99905.91;5003859;28;20034;-87
2023/08/29 00:12:44;;;;;;;8.65;1.30;;;;;;;17.22;65.21;99901.53;5003741;28;20049;-85
2023/08/29 00:15:10;;;;;;;7.40;1.70;;;;;;;17.18;65.71;99904.41;5003580;28;20394;-87
2023/08/29 00:17:35;;;;;;;10.52;1.80;;;;;;;17.13;65.81;99906.38;4997057;28;20050;-86
2023/08/29 00:20:02;;;;;;;8.20;1.60;;;;;;;17.09;65.87;99910.94;5004294;28;20034;-86
2023/08/29 00:22:30;;;;;;;5.95;1.50;;;;;;;17.07;65.90;99902.13;5000966;28;20014;-84
2023/08/29 00:24:59;;;;;;;6.93;1.40;;;;;;;17.04;66.02;99912.91;5007166;28;20011;-85
2023/08/29 00:27:27;;;;;;;6.43;1.60;;;;;;;17.02;66.26;99906.75;5007069;28;20373;-85
2023/08/29 00:29:54;;;;;;;10.50;1.50;;;;;;;17.01;66.09;99913.00;5005004;28;20038;-85
2023/08/29 00:32:21;;;;;;;7.75;1.50;;;;;;;16.99;66.38;99909.50;4991671;28;20026;-85
2023/08/29 00:34:47;;;;;;;11.85;2.03;;;;;;;16.93;66.87;99908.78;5009235;28;20034;-85
2023/08/29 00:37:12;;;;;;;7.78;1.70;;;;;;;16.91;66.42;99912.44;5007412;28;20030;-87
2023/08/29 00:39:38;;;;;;;11.70;2.10;;;;;;;16.89;66.76;99907.16;5004408;28;20030;-86
2023/08/29 00:42:04;;;;;;;10.05;1.50;;;;;;;16.86;66.62;99907.28;5000596;28;20080;-86
2023/08/29 00:44:29;;;;;;;8.47;1.63;;;;;;;16.85;66.99;99908.19;4998440;28;20022;-85
2023/08/29 00:46:55;;;;;;;6.77;1.50;;;;;;;16.85;66.72;99899.34;4999384;28;20026;-85
2023/08/29 00:49:26;;;;;;;8.43;1.53;;;;;;;16.85;66.92;99902.88;4999468;28;20026;-86
2023/08/29 00:51:52;;;;;;;8.43;1.55;;;;;;;16.81;67.14;99901.25;4999413;28;20042;-86
2023/08/29 00:54:19;;;;;;;8.82;1.83;;;;;;;16.78;67.08;99901.38;4999397;28;20081;-86
2023/08/29 00:56:46;;;;;;;9.68;1.73;;;;;;;16.74;67.43;99899.72;4998376;28;20030;-86
2023/08/29 00:59:12;;;;;;;7.57;1.63;;;;;;;16.73;67.31;99898.00;4999447;28;20034;-86
2023/08/29 01:01:38;;;;;;;9.47;1.90;;;;;;;16.72;67.39;99898.91;4998084;28;20388;-85
2023/08/29 01:04:04;;;;;;;8.02;1.70;;;;;;;16.73;67.08;99904.19;4999315;28;20034;-85
2023/08/29 01:06:33;;;;;;;9.90;1.93;;;;;;;16.70;67.50;99898.09;4999218;28;20037;-85
2023/08/29 01:08:59;;;;;;;8.65;1.77;;;;;;;16.69;67.48;99901.69;4998013;28;20483;-85
2023/08/29 01:11:34;;;;;;;6.47;1.60;;;;;;;16.67;67.65;99898.22;4999396;28;20042;-86
2023/08/29 01:14:25;;;;;;;8.65;1.90;;;;;;;16.64;68.16;99894.75;4999166;28;20096;-86
2023/08/29 01:17:08;;;;;;;9.77;1.70;;;;;;;16.60;68.08;99903.75;4998996;28;20092;-86
2023/08/29 01:19:39;;;;;;;10.20;1.83;;;;;;;16.61;68.12;99893.97;4991311;28;20109;-85
2023/08/29 01:22:18;;;;;;;8.85;1.60;;;;;;;16.59;68.23;99894.03;4996745;28;20106;-86
2023/08/29 01:24:56;;;;;;;8.30;1.70;;;;;;;16.54;68.80;99896.00;4999250;28;20061;-85
2023/08/29 01:27:22;;;;;;;11.10;1.83;;;;;;;16.55;68.61;99900.41;4987916;28;20030;-85
2023/08/29 01:29:48;;;;;;;8.27;1.70;;;;;;;16.53;68.41;99901.34;4998933;28;20037;-85
2023/08/29 01:32:15;;;;;;;6.32;1.70;;;;;;;16.52;68.55;99905.81;4998941;28;20407;-86
2023/08/29 01:34:43;;;;;;;8.55;1.63;;;;;;;16.51;68.46;99909.38;4998940;28;20026;-86
2023/08/29 01:37:08;;;;;;;6.45;1.77;;;;;;;16.51;68.65;99914.69;5000547;28;20026;-85
2023/08/29 01:39:34;;;;;;;13.17;2.20;;;;;;;16.47;68.83;99913.94;4999173;28;20034;-86
2023/08/29 01:41:59;;;;;;;9.27;1.63;;;;;;;16.47;68.93;99903.31;4998603;28;20018;-85
2023/08/29 01:44:25;;;;;;;10.03;1.57;;;;;;;16.46;68.89;99898.03;4999564;28;20022;-85
2023/08/29 01:46:50;;;;;;;10.95;1.92;;;;;;;16.41;68.89;99889.38;4999939;28;20383;-85
2023/08/29 01:49:16;;;;;;;10.67;1.97;;;;;;;16.40;68.90;99899.13;4998857;28;20058;-86
2023/08/29 01:51:41;;;;;;;10.83;2.03;;;;;;;16.35;69.33;99899.28;4998478;28;20035;-86
2023/08/29 01:54:07;;;;;;;8.43;1.50;;;;;;;16.31;69.38;99900.31;4997381;28;20129;-86
2023/08/29 01:56:33;;;;;;;9.03;2.03;;;;;;;16.31;69.52;99904.75;4998732;28;20034;-86
2023/08/29 01:58:59;;;;;;;8.10;1.70;;;;;;;16.31;69.30;99896.78;4998719;28;20462;-84
2023/08/29 02:01:24;;;;;;;7.93;1.70;;;;;;;16.32;69.29;99899.41;4997824;28;20558;-85
2023/08/29 02:03:51;;;;;;;8.70;1.73;;;;;;;16.30;69.40;99903.91;4997891;28;20026;-86
2023/08/29 02:06:16;;;;;;;7.30;2.08;;;;;;;16.28;69.70;99908.41;4997086;28;20368;-86
2023/08/29 02:08:41;;;;;;;9.90;2.70;;;;;;;16.28;69.53;99899.53;4998061;28;20034;-86
2023/08/29 02:11:07;;;;;;;9.33;1.90;;;;;;;16.27;69.47;99914.59;4997939;28;20050;-85
2023/08/29 02:13:33;;;;;;;13.23;2.17;;;;;;;16.25;69.90;99913.78;4998262;28;20100;-85
2023/08/29 02:16:01;;;;;;;11.35;2.13;;;;;;;16.24;69.59;99914.69;4997932;28;20555;-85
2023/08/29 02:18:26;;;;;;;8.30;1.85;;;;;;;16.24;69.44;99917.34;4988027;28;20436;-86
2023/08/29 02:20:51;;;;;;;7.03;1.90;;;;;;;16.23;69.79;99914.78;4998039;28;20375;-86
2023/08/29 02:23:17;;;;;;;8.73;1.50;;;;;;;16.21;69.76;99909.50;4993827;28;20450;-85
2023/08/29 02:25:42;;;;;;;10.00;1.40;;;;;;;16.24;69.60;99916.50;4997811;28;20022;-86
2023/08/29 02:28:08;;;;;;;8.13;1.70;;;;;;;16.25;69.36;99905.81;4996739;28;20295;-86
2023/08/29 02:30:36;;;;;;;11.40;2.03;;;;;;;16.25;69.72;99913.78;4997783;28;20030;-85
2023/08/29 02:33:02;;;;;;;8.80;1.80;;;;;;;16.27;70.02;99916.41;4997182;28;20026;-85
2023/08/29 02:35:27;;;;;;;10.37;1.60;;;;;;;16.26;70.05;99910.19;4997794;28;20117;-86
2023/08/29 02:37:53;;;;;;;10.77;1.73;;;;;;;16.27;70.09;99913.75;4997588;28;20034;-85
2023/08/29 02:40:19;;;;;;;11.53;1.90;;;;;;;16.27;69.86;99905.78;4997169;28;20030;-86
2023/08/29 02:42:45;;;;;;;10.02;1.92;;;;;;;16.29;69.95;99903.94;4996418;28;20029;-86
2023/08/29 02:45:11;;;;;;;13.27;2.10;;;;;;;16.27;70.10;99896.00;4997743;28;20026;-86
2023/08/29 02:47:36;;;;;;;9.52;1.80;;;;;;;16.27;70.00;99897.81;4995730;28;20030;-86
2023/08/29 02:50:03;;;;;;;11.07;2.20;;;;;;;16.28;70.01;99891.56;4997731;28;20098;-86
2023/08/29 02:52:29;;;;;;;11.02;2.20;;;;;;;16.28;69.96;99889.78;4997333;28;20026;-86
2023/08/29 02:54:54;;;;;;;9.05;2.13;;;;;;;16.29;70.10;99885.34;4996023;28;20038;-85
2023/08/29 02:57:20;;;;;;;8.87;2.17;;;;;;;16.27;70.16;99885.38;4997371;28;20510;-86
2023/08/29 02:59:45;;;;;;;10.30;2.20;;;;;;;16.26;70.01;99883.63;4996395;28;20065;-86
2023/08/29 03:02:11;;;;;;;8.65;1.80;;;;;;;16.27;69.99;99877.41;4996783;28;20026;-85
2023/08/29 03:04:36;;;;;;;9.90;2.30;;;;;;;16.27;69.98;99876.56;4997428;28;20026;-86
2023/08/29 03:07:04;;;;;;;14.80;2.17;;;;;;;16.24;70.19;99874.84;4996176;28;20399;-86
2023/08/29 03:09:29;;;;;;;10.68;2.03;;;;;;;16.20;70.26;99867.91;4995905;28;20029;-85
2023/08/29 03:11:55;;;;;;;10.93;2.00;;;;;;;16.19;70.35;99876.81;4995704;28;20042;-86
2023/08/29 03:14:21;;;;;;;10.13;2.33;;;;;;;16.16;70.48;99876.91;4996111;28;20262;-86
2023/08/29 03:16:46;;;;;;;10.50;2.50;;;;;;;16.15;70.24;99880.50;4996893;28;20467;-85
2023/08/29 03:19:12;;;;;;;13.98;2.30;;;;;;;16.14;70.36;99874.28;4986719;28;20093;-86
2023/08/29 03:21:37;;;;;;;10.70;2.27;;;;;;;16.12;70.31;99862.00;4993554;28;20110;-86
2023/08/29 03:24:03;;;;;;;10.27;2.20;;;;;;;16.10;70.47;99866.50;4995872;28;20018;-86
2023/08/29 03:26:28;;;;;;;11.43;2.25;;;;;;;16.10;70.30;99871.81;4996143;28;20077;-86
2023/08/29 03:28:53;;;;;;;15.63;2.20;;;;;;;16.11;70.58;99873.53;4997256;28;20090;-86
2023/08/29 03:31:19;;;;;;;9.60;1.97;;;;;;;16.08;70.20;99874.50;4996431;28;20026;-86
2023/08/29 03:33:45;;;;;;;14.03;2.63;;;;;;;16.08;70.41;99874.50;4996863;28;20026;-86
2023/08/29 03:36:10;;;;;;;10.10;2.20;;;;;;;16.08;70.08;99879.81;4996304;28;20104;-86
2023/08/29 03:38:39;;;;;;;11.03;2.20;;;;;;;16.11;70.29;99882.38;4997971;28;20037;-86
2023/08/29 03:41:05;;;;;;;10.23;2.30;;;;;;;16.14;70.65;99884.06;4997779;28;20023;-86
2023/08/29 03:43:32;;;;;;;11.45;2.50;;;;;;;16.18;70.37;99875.94;4997559;28;20031;-86
2023/08/29 03:45:59;;;;;;;13.95;2.55;;;;;;;16.21;69.98;99874.97;4996084;28;20031;-86
2023/08/29 03:48:25;;;;;;;11.68;2.13;;;;;;;16.23;70.01;99880.25;4996917;28;20569;-86
2023/08/29 03:50:50;;;;;;;13.50;2.63;;;;;;;16.22;70.27;99879.34;4995692;28;20109;-86
2023/08/29 03:53:16;;;;;;;8.77;2.20;;;;;;;16.24;70.30;99879.31;4996740;28;20027;-86
2023/08/29 03:55:42;;;;;;;14.00;2.83;;;;;;;16.24;70.36;99874.84;4996925;28;20028;-86
2023/08/29 03:58:07;;;;;;;11.00;2.70;;;;;;;16.23;70.91;99883.75;4997236;28;20034;-87
2023/08/29 04:00:33;;;;;;;14.15;2.75;;;;;;;16.19;70.94;99871.50;4996565;28;20014;-86
2023/08/29 04:02:59;;;;;;;14.87;2.87;;;;;;;16.19;70.93;99877.69;4995830;28;20030;-87
2023/08/29 04:05:25;;;;;;;12.75;2.65;;;;;;;16.20;70.95;99874.09;4995303;28;20032;-87
2023/08/29 04:07:51;;;;;;;11.53;2.73;;;;;;;16.23;71.15;99873.13;4996847;28;20113;-86
2023/08/29 04:10:16;;;;;;;11.75;2.60;;;;;;;16.25;70.74;99873.06;4995309;28;20030;-85
2023/08/29 04:12:42;;;;;;;12.90;2.83;;;;;;;16.28;71.16;99865.88;4996614;28;20488;-85
2023/08/29 04:15:10;;;;;;;14.55;2.92;;;;;;;16.30;70.92;99866.69;4995657;28;20022;-86
2023/08/29 04:17:35;;;;;;;13.00;2.63;;;;;;;16.29;71.00;99858.75;4995268;28;20027;-86
2023/08/29 04:20:00;;;;;;;12.10;2.55;;;;;;;16.27;71.11;99853.50;4997191;28;20029;-85
2023/08/29 04:22:26;;;;;;;13.97;3.10;;;;;;;16.27;70.82;99852.63;4994632;28;20026;-86
2023/08/29 04:24:52;;;;;;;8.77;2.40;;;;;;;16.26;71.06;99851.75;4996783;28;20161;-85
2023/08/29 04:27:18;;;;;;;16.70;2.77;;;;;;;16.27;70.78;99858.81;5000242;28;20037;-85
2023/08/29 04:29:44;;;;;;;12.75;2.50;;;;;;;16.28;70.94;99849.94;5000004;28;20098;-85
2023/08/29 04:32:09;;;;;;;13.07;3.37;;;;;;;16.29;70.79;99841.06;4998300;28;20112;-85
2023/08/29 04:34:34;;;;;;;11.02;2.53;;;;;;;16.28;70.78;99844.63;4998914;28;20105;-85
2023/08/29 04:37:00;;;;;;;13.00;2.70;;;;;;;16.30;70.86;99839.25;5000075;28;20030;-86
2023/08/29 04:39:25;;;;;;;13.60;2.43;;;;;;;16.28;70.96;99839.31;5000029;28;20031;-85
2023/08/29 04:41:51;;;;;;;12.57;2.40;;;;;;;16.26;71.05;99849.09;4999903;28;20118;-85
2023/08/29 04:44:16;;;;;;;14.80;2.83;;;;;;;16.26;70.86;99845.59;4999628;28;20027;-84
2023/08/29 04:46:41;;;;;;;12.20;2.30;;;;;;;16.27;70.84;99842.88;4999775;28;20081;-85
2023/08/29 04:49:07;;;;;;;12.40;2.70;;;;;;;16.27;70.80;99848.19;4999817;28;20034;-85
2023/08/29 04:51:34;;;;;;;16.83;2.80;;;;;;;16.26;70.71;99845.59;4998677;28;20023;-84
2023/08/29 04:54:00;;;;;;;16.48;3.40;;;;;;;16.24;70.65;99842.13;4999753;28;20014;-85
2023/08/29 04:56:25;;;;;;;16.70;2.90;;;;;;;16.19;70.95;99850.25;4999773;28;20030;-85
2023/08/29 04:58:51;;;;;;;14.70;3.10;;;;;;;16.16;70.94;99850.34;4999503;28;20018;-85
2023/08/29 05:01:16;;;;;;;12.73;2.70;;;;;;;16.10;71.34;99847.91;4999086;28;20117;-85
2023/08/29 05:03:42;;;;;;;17.03;3.00;;;;;;;16.07;71.54;99855.06;4999400;28;20169;-85
2023/08/29 05:06:07;;;;;;;16.70;2.83;;;;;;;16.04;71.45;99849.84;4999613;28;20022;-84
2023/08/29 05:08:34;;;;;;;13.10;2.97;;;;;;;16.03;71.43;99856.06;4999485;28;20022;-85
2023/08/29 05:11:01;;;;;;;12.48;3.00;;;;;;;16.04;71.38;99856.94;4999335;28;20045;-85
2023/08/29 05:13:26;;;;;;;13.82;2.80;;;;;;;16.02;71.26;99856.13;4994163;28;20061;-85
2023/08/29 05:15:52;;;;;;;14.60;2.73;;;;;;;16.00;71.59;99850.84;4998002;28;20450;-85
2023/08/29 05:18:17;;;;;;;10.17;3.07;;;;;;;15.98;71.43;99847.38;4989963;28;20082;-85
2023/08/29 05:20:43;;;;;;;14.85;3.35;;;;;;;15.97;71.31;99850.97;4999302;28;20050;-85
2023/08/29 05:23:09;;;;;;;13.60;2.90;;;;;;;15.97;71.64;99861.56;4996533;28;20033;-85
2023/08/29 05:25:34;;;;;;;16.02;3.38;;;;;;;15.96;71.66;99864.31;4999019;28;20054;-84
2023/08/29 05:27:59;;;;;;;15.17;2.87;;;;;;;15.97;71.31;99864.22;4998758;28;20491;-85
2023/08/29 05:30:25;;;;;;;18.03;2.67;;;;;;;16.00;71.74;99856.16;4997722;28;20479;-86
2023/08/29 05:32:50;;;;;;;12.70;3.03;;;;;;;16.03;71.41;99856.06;4998927;28;20026;-85
2023/08/29 05:35:16;;;;;;;15.52;2.92;;;;;;;16.08;71.56;99858.56;4997676;28;20030;-84
2023/08/29 05:37:41;;;;;;;17.50;3.30;;;;;;;16.10;71.42;99862.03;4998788;28;20033;-84
2023/08/29 05:40:08;;;;;;;14.50;2.83;;;;;;;16.11;71.33;99862.91;5000380;28;20014;-85
2023/08/29 05:42:34;;;;;;;16.58;3.20;;;;;;;16.14;71.38;99868.13;5000307;28;20021;-84
2023/08/29 05:44:59;;;;;;;20.27;3.10;;;;;;;16.17;71.30;99868.03;4998898;28;20031;-84
2023/08/29 05:47:24;;;;;;;11.88;2.78;;;;;;;16.21;71.10;99869.66;4998044;28;20031;-84
2023/08/29 05:49:50;;;;;;;11.83;3.40;;;;;;;16.19;71.59;99863.53;4998258;28;20039;-86
2023/08/29 05:52:16;;;;;;;12.60;3.00;;;;;;;16.19;71.23;99871.50;4998649;28;20030;-85
2023/08/29 05:54:42;;;;;;;16.38;3.28;;;;;;;16.20;71.46;99871.44;4997562;28;20122;-85
2023/08/29 05:57:07;;;;;;;14.55;3.60;;;;;;;16.21;71.21;99869.66;4997402;28;20113;-87
2023/08/29 05:59:33;;;;;;;17.53;3.03;;;;;;;16.22;71.36;99871.38;4998505;28;20057;-85
2023/08/29 06:01:58;;;;;;;18.60;3.13;;;;;;;16.28;70.96;99871.19;4997966;28;20077;-85
2023/08/29 06:04:24;;;;;;;16.97;3.17;;;;;;;16.39;70.56;99872.59;4997279;28;20030;-85
2023/08/29 06:06:50;;;;;;;14.88;3.17;;;;;;;16.53;70.13;99878.31;4997099;28;20034;-86
2023/08/29 06:09:16;;;;;;;14.13;2.70;;;;;;;16.71;69.75;99873.25;4996778;28;20037;-89
2023/08/29 06:11:42;;;;;;;14.07;3.33;;;;;;;16.90;69.15;99871.66;4989317;28;20050;-90
2023/08/29 06:14:07;;;;;;;14.57;3.28;;;;;;;17.05;68.76;99872.06;4998270;28;20030;-86
2023/08/29 06:16:32;;;;;;;16.00;3.43;;;;;;;17.13;68.28;99875.28;4997647;28;20253;-88
2023/08/29 06:18:58;;;;;;;12.80;3.00;;;;;;;17.18;68.32;99862.69;4988068;28;20026;-86
2023/08/29 06:21:23;;;;;;;14.13;3.10;;;;;;;17.27;67.86;99866.78;4996137;28;20054;-89
2023/08/29 06:23:48;;;;;;;15.85;3.05;;;;;;;17.36;67.56;99874.44;4995599;28;20022;-89
2023/08/29 06:26:15;;;;;;;13.40;3.17;;;;;;;17.52;67.30;99859.66;4997020;28;20026;-86
2023/08/29 06:28:41;;;;;;;9.90;2.45;;;;;;;17.61;66.99;99865.50;4997503;28;20077;-94
2023/08/29 06:31:09;;;;;;;12.97;2.70;;;;;;;17.65;66.90;99867.09;4997274;28;20038;-93
2023/08/29 06:33:37;;;;;;;14.90;2.60;;;;;;;17.70;66.65;99858.91;4996660;28;20022;-86
2023/08/29 06:36:02;;;;;;;12.52;3.35;;;;;;;17.61;67.21;99867.25;4997895;28;20030;-82
2023/08/29 06:38:29;;;;;;;15.80;3.13;;;;;;;17.67;67.21;99867.00;4997673;28;20029;-84
2023/08/29 06:40:56;;;;;;;16.33;3.33;;;;;;;17.60;67.50;99874.41;4996668;28;20018;-81
2023/08/29 06:43:25;;;;;;;13.68;3.17;;;;;;;17.52;67.65;99880.94;4997367;28;20033;-81
2023/08/29 06:45:50;;;;;;;16.90;2.90;;;;;;;17.52;68.03;99878.28;4996217;28;20080;-79
2023/08/29 06:48:16;;;;;;;14.80;2.63;;;;;;;17.53;67.96;99877.38;4997064;28;20054;-78
2023/08/29 06:50:42;;;;;;;19.50;3.58;;;;;;;17.55;68.40;99875.50;4997418;28;20026;-78
2023/08/29 06:53:07;;;;;;;14.47;3.57;;;;;;;17.61;68.22;99877.91;4997105;28;20026;-78
2023/08/29 06:55:34;;;;;;;17.77;3.40;;;;;;;17.62;68.41;99877.00;4993816;28;20018;-79
2023/08/29 06:58:02;;;;;;;13.48;3.13;;;;;;;17.74;68.29;99878.28;4994996;28;20867;-78
2023/08/29 07:00:28;;;;;;;12.50;2.90;;;;;;;17.87;68.20;99881.31;4997421;28;20029;-80
2023/08/29 07:02:53;;;;;;;14.77;2.80;;;;;;;18.00;68.11;99871.91;4995889;28;20034;-81
2023/08/29 07:05:20;;;;;;;17.20;3.30;;;;;;;18.16;67.67;99865.97;4996167;28;20026;-80
2023/08/29 07:07:45;;;;;;;16.03;3.63;;;;;;;18.32;67.51;99875.06;4997045;28;20027;-80
2023/08/29 07:10:11;;;;;;;19.63;3.70;;;;;;;18.43;67.21;99879.03;4996178;28;20044;-80
2023/08/29 07:12:36;;;;;;;14.10;3.47;;;;;;;18.57;66.68;99886.47;4996749;28;20050;-79
2023/08/29 07:15:02;;;;;;;16.77;3.20;;;;;;;18.70;66.58;99881.47;4996226;28;20073;-81
2023/08/29 07:17:28;;;;;;;21.30;4.10;;;;;;;18.84;66.15;99879.03;4992047;28;20018;-80
2023/08/29 07:19:53;;;;;;;17.53;3.53;;;;;;;18.96;65.96;99879.44;4989709;28;20509;-80
2023/08/29 07:22:19;;;;;;;15.40;3.13;;;;;;;19.10;65.28;99873.50;4994750;28;20054;-80
2023/08/29 07:24:44;;;;;;;18.15;3.75;;;;;;;19.17;64.88;99875.81;4997191;28;20030;-80
2023/08/29 07:27:10;;;;;;;14.83;2.70;;;;;;;19.19;64.90;99868.59;4984021;28;20041;-80
2023/08/29 07:29:36;;;;;;;16.33;3.00;;;;;;;19.27;64.61;99862.88;4997081;28;20112;-79
2023/08/29 07:32:01;;;;;;;13.83;2.80;;;;;;;19.43;64.33;99879.06;4996542;28;20062;-79
2023/08/29 07:34:27;;;;;;;13.35;3.35;;;;;;;19.51;64.22;99862.66;4995779;28;20037;-80
2023/08/29 07:36:53;;;;;;;15.17;3.47;;;;;;;19.63;63.62;99861.19;4997000;28;20034;-80
2023/08/29 07:39:19;;;;;;;21.53;3.90;;;;;;;19.65;63.39;99860.19;4997386;28;20023;-81
2023/08/29 07:41:47;;;;;;;14.75;3.38;;;;;;;19.74;63.38;99866.03;4996567;28;20019;-82
2023/08/29 07:44:13;;;;;;;15.05;3.72;;;;;;;19.86;63.48;99856.53;4995724;28;20027;-82
2023/08/29 07:46:38;;;;;;;18.03;3.80;;;;;;;19.93;62.96;99864.22;4996417;28;20023;-82
2023/08/29 07:49:10;;;;;;;13.60;3.40;;;;;;;20.06;62.34;99861.78;4996900;28;20049;-79
2023/08/29 07:51:36;;;;;;;18.95;3.50;;;;;;;20.22;62.33;99853.00;4990469;28;20103;-78
2023/08/29 07:54:01;;;;;;;14.85;3.17;;;;;;;20.32;61.18;99864.09;4990780;28;20455;-78
2023/08/29 07:56:27;;;;;;;18.43;4.27;;;;;;;20.34;61.03;99865.75;4987703;28;20027;-77
2023/08/29 07:58:52;;;;;;;19.43;3.70;;;;;;;20.42;60.57;99854.66;4995336;28;20045;-78
2023/08/29 08:01:17;;;;;;;13.63;3.03;;;;;;;20.50;60.10;99856.94;4998463;28;20081;-78
2023/08/29 08:03:43;;;;;;;16.43;4.03;;;;;;;20.60;59.78;99862.66;5000440;28;20031;-78
2023/08/29 08:06:09;;;;;;;14.65;3.28;;;;;;;20.82;59.46;99862.41;5000019;28;20026;-78
2023/08/29 08:08:34;;;;;;;16.40;3.97;;;;;;;20.98;58.57;99853.56;5000202;28;20603;-78
2023/08/29 08:11:00;;;;;;;14.20;3.73;;;;;;;21.02;57.78;99845.31;5000251;28;20408;-78
2023/08/29 08:13:25;;;;;;;14.47;3.63;;;;;;;21.05;57.34;99863.00;5000062;28;20029;-78
2023/08/29 08:15:51;;;;;;;15.07;3.30;;;;;;;21.20;57.21;99859.47;4999580;28;20054;-78
2023/08/29 08:18:16;;;;;;;17.58;3.65;;;;;;;21.39;57.24;99861.16;4990280;28;20026;-78
2023/08/29 08:20:42;;;;;;;15.90;3.60;;;;;;;21.59;56.47;99856.50;5000097;28;20058;-79
2023/08/29 08:23:07;;;;;;;13.82;3.75;;;;;;;21.82;55.92;99859.66;4997392;28;20025;-78
2023/08/29 08:25:33;;;;;;;13.87;3.37;;;;;;;21.90;55.16;99854.75;4999869;28;20162;-78
2023/08/29 08:27:59;;;;;;;14.40;3.40;;;;;;;21.87;54.59;99849.56;5000288;28;20030;-78
2023/08/29 08:30:24;;;;;;;13.97;3.43;;;;;;;21.89;55.31;99848.50;4999765;28;20034;-78
2023/08/29 08:32:49;;;;;;;12.87;3.23;;;;;;;21.90;55.31;99849.38;4999373;28;20029;-79
2023/08/29 08:35:15;;;;;;;16.10;3.70;;;;;;;21.90;55.45;99849.38;4999029;28;20022;-78
2023/08/29 08:37:40;;;;;;;18.37;3.60;;;;;;;21.96;55.37;99838.28;4999503;28;20025;-78
2023/08/29 08:40:09;;;;;;;12.83;3.57;;;;;;;21.97;54.72;99855.25;4999611;28;20026;-78
2023/08/29 08:42:37;;;;;;;17.17;3.90;;;;;;;22.06;53.95;99852.03;4999609;28;20467;-78
2023/08/29 08:45:05;;;;;;;14.32;3.38;;;;;;;21.97;53.09;99850.75;4999236;28;20029;-78
2023/08/29 08:47:33;;;;;;;12.10;3.07;;;;;;;21.96;53.54;99849.03;4999103;28;20543;-78
2023/08/29 08:49:58;;;;;;;14.82;3.50;;;;;;;22.04;53.20;99859.31;4998572;28;20049;-76
2023/08/29 08:52:24;;;;;;;15.95;2.88;;;;;;;22.06;52.52;99860.97;4999304;28;20038;-78
2023/08/29 08:54:50;;;;;;;12.37;3.17;;;;;;;21.88;52.56;99859.34;4999514;28;20483;-78
2023/08/29 08:57:15;;;;;;;17.13;3.60;;;;;;;21.64;52.42;99852.59;4999462;28;20116;-78
2023/08/29 08:59:42;;;;;;;12.40;3.07;;;;;;;21.46;52.49;99862.53;4998013;28;20030;-78
2023/08/29 09:02:12;;;;;;;12.57;2.92;;;;;;;21.40;52.61;99868.22;4993162;28;20023;-78
2023/08/29 09:04:37;;;;;;;16.83;3.83;;;;;;;21.58;52.62;99860.97;4996413;28;20030;-81
2023/08/29 09:07:03;;;;;;;14.68;3.67;;;;;;;21.89;52.06;99871.78;4997593;28;20023;-80
2023/08/29 09:09:28;;;;;;;11.07;2.67;;;;;;;22.25;51.85;99881.28;4998710;28;20030;-79
2023/08/29 09:11:56;;;;;;;15.27;3.53;;;;;;;22.56;51.72;99873.28;4995539;28;20043;-79
2023/08/29 09:14:23;;;;;;;15.02;3.55;;;;;;;22.81;50.07;99872.66;4989659;28;20032;-79
2023/08/29 09:16:53;;;;;;;15.27;3.25;;;;;;;22.74;50.50;99882.00;4997470;28;20403;-79
2023/08/29 09:19:22;;;;;;;15.68;3.28;;;;;;;22.56;49.73;99884.88;4998596;28;20022;-78
2023/08/29 09:21:48;;;;;;;13.10;3.38;;;;;;;22.44;50.49;99886.44;4996208;28;20023;-79
2023/08/29 09:24:13;;;;;;;18.23;3.90;;;;;;;22.44;50.20;99874.84;4998852;28;20480;-79
2023/08/29 09:26:41;;;;;;;11.53;3.20;;;;;;;22.61;50.13;99882.78;4998692;28;20054;-79
2023/08/29 09:29:18;;;;;;;14.65;3.53;;;;;;;22.69;49.20;99878.75;4998814;28;20030;-79
2023/08/29 09:31:46;;;;;;;12.82;3.70;;;;;;;22.69;50.08;99881.44;4997971;28;20058;-79
2023/08/29 09:34:25;;;;;;;14.15;3.25;;;;;;;22.62;49.88;99881.81;4998768;28;20026;-79
2023/08/29 09:36:50;;;;;;;11.75;3.28;;;;;;;22.73;49.97;99885.66;4998566;28;20026;-79
2023/08/29 09:39:15;;;;;;;13.13;3.00;;;;;;;22.84;49.62;99888.56;4997537;28;20030;-80
2023/08/29 09:41:41;;;;;;;12.30;3.10;;;;;;;23.01;49.20;99883.94;4998419;28;20505;-80
2023/08/29 09:44:13;;;;;;;14.80;3.10;;;;;;;23.16;48.17;99882.16;4998467;28;20722;-80
2023/08/29 09:46:44;;;;;;;11.77;2.88;;;;;;;23.26;47.55;99885.13;4998183;28;20030;-79
2023/08/29 09:49:09;;;;;;;14.87;3.23;;;;;;;23.41;47.60;99878.78;4998431;28;20092;-79
2023/08/29 09:51:37;;;;;;;14.48;3.88;;;;;;;23.53;46.71;99882.50;4998411;28;20030;-79
2023/08/29 09:54:07;;;;;;;15.25;4.10;;;;;;;23.50;46.12;99871.94;4998298;28;20064;-79
2023/08/29 09:56:34;;;;;;;12.07;3.00;;;;;;;23.50;47.16;99874.63;4998395;28;20022;-79
2023/08/29 09:59:02;;;;;;;14.90;3.05;;;;;;;23.43;46.84;99887.59;4998179;28;20027;-80
2023/08/29 10:01:28;;;;;;;10.18;3.25;;;;;;;23.47;46.66;99877.53;4997745;28;20487;-79
2023/08/29 10:03:54;;;;;;;11.98;3.40;;;;;;;23.55;45.63;99879.72;4998133;28;20100;-79
2023/08/29 10:06:21;;;;;;;14.03;3.37;;;;;;;23.43;45.99;99874.16;4988119;28;20388;-78
2023/08/29 10:08:55;;;;;;;12.73;3.08;;;;;;;23.36;46.27;99876.38;4995695;28;20033;-80
2023/08/29 10:11:21;;;;;;;14.05;3.65;;;;;;;23.20;46.72;99873.78;4987492;28;20380;-80
2023/08/29 10:13:48;;;;;;;14.55;3.33;;;;;;;23.01;46.92;99874.09;4997870;28;20113;-80
2023/08/29 10:16:15;;;;;;;14.27;3.35;;;;;;;23.00;47.12;99869.66;4997733;28;20101;-80
2023/08/29 10:18:41;;;;;;;12.77;3.00;;;;;;;22.93;47.77;99877.25;4992065;28;20038;-80
2023/08/29 10:21:07;;;;;;;13.60;3.30;;;;;;;22.96;46.89;99868.16;4997318;28;20034;-80
2023/08/29 10:23:35;;;;;;;10.00;2.80;;;;;;;23.26;47.03;99871.69;4997159;28;20030;-79
2023/08/29 10:26:02;;;;;;;11.93;2.53;;;;;;;23.61;46.64;99861.34;4996649;28;20077;-79
2023/08/29 10:28:29;;;;;;;12.80;2.60;;;;;;;23.73;45.51;99854.31;4994007;28;20023;-81
2023/08/29 10:30:59;;;;;;;9.63;2.58;;;;;;;23.67;46.09;99857.41;4996293;28;20134;-80
2023/08/29 10:33:25;;;;;;;14.15;3.10;;;;;;;23.56;45.99;99859.94;4997908;28;20026;-79
2023/08/29 10:35:52;;;;;;;9.48;2.38;;;;;;;23.37;46.52;99856.59;4997169;28;20038;-81
2023/08/29 10:38:18;;;;;;;18.05;3.30;;;;;;;23.10;46.28;99859.22;4997640;28;20026;-80
2023/08/29 10:40:44;;;;;;;11.37;2.80;;;;;;;22.93;46.66;99858.44;4992157;28;20077;-80
2023/08/29 10:43:20;;;;;;;13.13;3.03;;;;;;;22.77;47.35;99863.03;4995520;28;20091;-78
2023/08/29 10:45:52;;;;;;;13.07;3.25;;;;;;;22.75;46.76;99856.91;4996549;28;20053;-80
2023/08/29 10:48:22;;;;;;;12.50;2.80;;;;;;;22.72;46.03;99851.72;4996301;28;20030;-79
2023/08/29 10:51:09;;;;;;;12.50;2.97;;;;;;;22.73;46.80;99853.44;4997488;28;20033;-78
2023/08/29 10:53:45;;;;;;;13.70;3.30;;;;;;;22.79;46.38;99858.47;4993900;28;20029;-80
2023/08/29 10:56:12;;;;;;;13.07;2.55;;;;;;;22.79;46.88;99853.09;4990529;28;21413;-79
2023/08/29 10:58:41;;;;;;;15.60;3.17;;;;;;;22.82;47.29;99842.16;4995455;28;20030;-81
2023/08/29 11:01:27;;;;;;;16.73;3.38;;;;;;;22.96;47.16;99843.09;4995528;28;20022;-81
2023/08/29 11:03:54;;;;;;;10.98;3.03;;;;;;;23.08;47.27;99843.19;4991897;28;20566;-79
2023/08/29 11:06:23;;;;;;;14.50;3.60;;;;;;;23.19;47.14;99845.19;4996854;28;20625;-82
2023/08/29 11:08:49;;;;;;;13.05;2.90;;;;;;;23.24;46.85;99831.47;4997263;28;20499;-84
2023/08/29 11:11:22;;;;;;;15.35;2.95;;;;;;;23.17;46.64;99831.00;4997066;28;20124;-80
2023/08/29 11:13:58;;;;;;;14.35;3.20;;;;;;;23.06;46.25;99833.53;4996096;28;20040;-79
2023/08/29 11:16:25;;;;;;;9.15;2.58;;;;;;;22.90;45.95;99826.44;4995907;28;20057;-77
2023/08/29 11:19:04;;;;;;;11.33;2.90;;;;;;;22.88;46.03;99831.03;4988223;28;20091;-79
2023/08/29 11:21:33;;;;;;;13.88;2.75;;;;;;;22.93;46.13;99828.91;4994444;28;20040;-80
2023/08/29 11:23:59;;;;;;;12.95;2.90;;;;;;;22.90;46.42;99837.16;4997128;28;20030;-84